KHHV

Hoover Diana

Hoover Diana, Texas, USA

KHHV 110855Z AUTO 36003KT 10SM BKN023 BKN030 19/09 A3035 RMK A01

Observed Flight Rules
Dec-11 @ 08:55 UTC (23 minutes ago) Marginal Visual Flight Rules
Wind Visibility Clouds
360° at 3 knots 10 miles
  • Broken at 2,300' AGL
  • Broken at 3,000' AGL
Temperatures Readings
Current 19°C / 66°F
Dewpoint 9°C / 48°F
Humidity 52%
Altimeter 30.35" Hg
Pressure 1028 hPa
Elevation 25
Observed Flight Rules
Dec-11 @ 08:55 UTC
(23 minutes ago)
MVFR
Wind Visibility
360° at 3 knots 10 miles
Clouds
  • Broken at 2,300' AGL
  • Broken at 3,000' AGL
Temperature Dewpoint
19°C / 66°F 9°C / 48°F
Humidity Altimeter Pressure
52% 30.35" Hg 1028 hPa